createdAt,value
2019-04-01T00:01:50.238Z,1.20
2019-04-01T00:04:18.982Z,1.10
2019-04-01T00:06:47.586Z,1.10
2019-04-01T00:09:16.416Z,1.00
2019-04-01T00:11:45.045Z,1.00
2019-04-01T00:14:13.628Z,1.10
2019-04-01T00:16:42.258Z,1.10
2019-04-01T00:19:10.903Z,1.10
2019-04-01T00:21:39.725Z,1.10
2019-04-01T00:24:08.356Z,1.00
2019-04-01T00:26:36.927Z,1.00
2019-04-01T00:29:05.634Z,1.00
2019-04-01T00:31:34.233Z,0.90
2019-04-01T00:34:02.903Z,1.00
2019-04-01T00:36:31.492Z,1.10
2019-04-01T00:39:00.088Z,1.30
2019-04-01T00:41:28.745Z,1.40
2019-04-01T00:43:59.101Z,1.50
2019-04-01T00:46:27.991Z,1.50
2019-04-01T00:48:56.579Z,1.50
2019-04-01T00:51:25.349Z,1.60
2019-04-01T00:53:53.955Z,1.70
2019-04-01T00:56:22.601Z,1.70
2019-04-01T00:58:51.201Z,1.60
2019-04-01T01:01:19.837Z,1.70
2019-04-01T01:03:48.681Z,1.60
2019-04-01T01:06:17.239Z,1.60
2019-04-01T01:08:45.843Z,1.60
2019-04-01T01:11:14.465Z,1.60
2019-04-01T01:13:43.150Z,1.60
2019-04-01T01:16:11.833Z,1.60
2019-04-01T01:18:40.741Z,1.60
2019-04-01T01:21:09.361Z,1.60
2019-04-01T01:23:37.964Z,1.60
2019-04-01T01:26:06.697Z,1.60
2019-04-01T01:28:35.381Z,1.60
2019-04-01T01:31:04.086Z,1.40
2019-04-01T01:33:32.747Z,1.10
2019-04-01T01:36:01.336Z,1.00
2019-04-01T01:38:29.918Z,0.80
2019-04-01T01:40:58.490Z,0.70
2019-04-01T01:43:27.156Z,0.70
2019-04-01T01:45:55.724Z,0.60
2019-04-01T01:48:24.392Z,0.70
2019-04-01T01:50:53.120Z,0.70
2019-04-01T01:53:21.739Z,0.70
2019-04-01T01:55:50.282Z,0.70
2019-04-01T01:58:18.994Z,0.70
2019-04-01T02:00:47.643Z,0.70
2019-04-01T02:03:16.257Z,0.70
2019-04-01T02:05:45.056Z,0.70
2019-04-01T02:08:13.685Z,0.80
2019-04-01T02:10:42.414Z,0.70
2019-04-01T02:13:11.006Z,0.70
2019-04-01T02:15:39.598Z,0.80
2019-04-01T02:18:08.239Z,0.70
2019-04-01T02:20:36.810Z,0.80
2019-04-01T02:23:05.557Z,0.90
2019-04-01T02:25:34.344Z,0.80
2019-04-01T02:28:03.133Z,0.80
2019-04-01T02:30:31.826Z,0.90
2019-04-01T02:33:00.469Z,0.90
2019-04-01T02:35:29.068Z,0.90
2019-04-01T02:37:57.716Z,0.80
2019-04-01T02:40:26.350Z,0.80
2019-04-01T02:42:55.315Z,0.70
2019-04-01T02:45:24.013Z,0.70
2019-04-01T02:47:52.667Z,0.70
2019-04-01T02:50:21.243Z,0.70
2019-04-01T02:52:49.971Z,0.80
2019-04-01T02:55:18.560Z,0.80
2019-04-01T02:57:47.229Z,0.80
2019-04-01T03:00:15.922Z,0.90
2019-04-01T03:02:44.592Z,0.90
2019-04-01T03:05:13.435Z,0.80
2019-04-01T03:07:42.147Z,0.80
2019-04-01T03:10:10.867Z,0.80
2019-04-01T03:12:39.695Z,0.70
2019-04-01T03:15:08.422Z,0.70
2019-04-01T03:17:37.199Z,0.70
2019-04-01T03:20:07.149Z,0.70
2019-04-01T03:22:35.765Z,0.70
2019-04-01T03:25:05.933Z,0.70
2019-04-01T03:27:34.641Z,0.70
2019-04-01T03:30:03.357Z,0.70
2019-04-01T03:32:31.923Z,0.70
2019-04-01T03:35:01.338Z,0.70
2019-04-01T03:37:30.326Z,0.70
2019-04-01T03:39:58.907Z,0.60
2019-04-01T03:42:27.524Z,0.50
2019-04-01T03:44:56.101Z,0.50
2019-04-01T03:47:24.690Z,0.50
2019-04-01T03:49:53.426Z,0.50
2019-04-01T03:52:21.994Z,0.50
2019-04-01T03:54:50.639Z,0.50
2019-04-01T03:57:19.423Z,0.50
2019-04-01T03:59:48.520Z,0.50
2019-04-01T04:02:17.186Z,0.40
2019-04-01T04:04:45.848Z,0.40
2019-04-01T04:07:14.481Z,0.40
2019-04-01T04:09:43.199Z,0.40
2019-04-01T04:12:11.950Z,0.50
2019-04-01T04:14:40.582Z,0.50
2019-04-01T04:17:09.318Z,0.50
2019-04-01T04:19:38.003Z,0.50
2019-04-01T04:22:06.579Z,0.50
2019-04-01T04:24:35.380Z,0.50
2019-04-01T04:27:04.061Z,0.60
2019-04-01T04:29:32.921Z,0.50
2019-04-01T04:32:01.612Z,0.60
2019-04-01T04:34:30.170Z,0.60
2019-04-01T04:36:58.775Z,0.60
2019-04-01T04:39:27.464Z,0.60
2019-04-01T04:41:56.202Z,0.60
2019-04-01T04:44:25.072Z,0.70
2019-04-01T04:46:53.759Z,0.70
2019-04-01T04:49:22.349Z,0.80
2019-04-01T04:51:51.044Z,0.80
2019-04-01T04:54:19.806Z,0.90
2019-04-01T04:56:48.455Z,0.90
2019-04-01T04:59:17.197Z,1.00
2019-04-01T05:01:45.763Z,1.00
2019-04-01T05:04:14.534Z,1.10
2019-04-01T05:06:43.323Z,1.10
2019-04-01T05:09:12.044Z,1.30
2019-04-01T05:11:40.602Z,1.40
2019-04-01T05:14:09.169Z,1.60
2019-04-01T05:16:37.801Z,1.90
2019-04-01T05:19:06.397Z,2.30
2019-04-01T05:21:36.691Z,2.40
2019-04-01T05:24:05.411Z,2.50
2019-04-01T05:26:35.618Z,2.50
2019-04-01T05:29:05.582Z,2.60
2019-04-01T05:31:35.574Z,2.70
2019-04-01T05:34:04.875Z,2.70
2019-04-01T05:36:33.754Z,2.80
2019-04-01T05:39:02.454Z,2.80
2019-04-01T05:41:31.950Z,2.80
2019-04-01T05:44:02.336Z,2.90
2019-04-01T05:46:31.467Z,2.90
2019-04-01T05:49:00.684Z,2.90
2019-04-01T05:51:29.582Z,3.00
2019-04-01T05:54:00.197Z,3.00
2019-04-01T05:56:28.843Z,3.00
2019-04-01T05:58:57.578Z,3.00
2019-04-01T06:01:31.015Z,3.00
2019-04-01T06:03:59.742Z,3.10
2019-04-01T06:06:28.470Z,3.10
2019-04-01T06:08:57.171Z,3.20
2019-04-01T06:11:25.956Z,3.20
2019-04-01T06:13:54.677Z,3.20
2019-04-01T06:16:23.332Z,3.30
2019-04-01T06:18:51.994Z,3.40
2019-04-01T06:21:20.919Z,3.40
2019-04-01T06:23:49.606Z,3.40
2019-04-01T06:26:18.263Z,3.40
2019-04-01T06:28:47.041Z,3.50
2019-04-01T06:31:15.757Z,3.50
2019-04-01T06:33:44.691Z,3.60
2019-04-01T06:36:13.379Z,3.60
2019-04-01T06:38:42.369Z,3.70
2019-04-01T06:41:12.571Z,3.70
2019-04-01T06:43:44.414Z,3.70
2019-04-01T06:46:13.137Z,3.80
2019-04-01T06:48:41.803Z,3.90
2019-04-01T06:51:10.554Z,3.90
2019-04-01T06:53:39.137Z,3.90
2019-04-01T06:56:07.863Z,3.90
2019-04-01T06:58:36.490Z,3.90
2019-04-01T07:01:05.468Z,3.80
2019-04-01T07:03:34.209Z,3.80
2019-04-01T07:06:03.012Z,3.90
2019-04-01T07:08:32.336Z,4.00
2019-04-01T07:11:01.090Z,4.20
2019-04-01T07:13:30.366Z,4.10
2019-04-01T07:16:14.412Z,4.20
2019-04-01T07:18:29.542Z,4.20
2019-04-01T07:20:58.270Z,4.80
2019-04-01T07:23:26.973Z,5.80
2019-04-01T07:25:55.609Z,6.30
2019-04-01T07:28:24.455Z,6.50
2019-04-01T07:30:53.177Z,6.10
2019-04-01T07:33:21.897Z,6.80
2019-04-01T07:35:50.640Z,6.50
2019-04-01T07:38:19.412Z,6.30
2019-04-01T07:40:48.382Z,6.00
2019-04-01T07:43:17.018Z,6.40
2019-04-01T07:45:45.981Z,6.90
2019-04-01T07:48:14.751Z,6.90
2019-04-01T07:50:43.366Z,6.90
2019-04-01T07:53:11.958Z,6.80
2019-04-01T07:55:40.789Z,7.60
2019-04-01T07:58:09.470Z,7.60
2019-04-01T08:00:38.296Z,7.00
2019-04-01T08:03:06.997Z,7.20
2019-04-01T08:05:35.879Z,7.70
2019-04-01T08:08:04.681Z,7.70
2019-04-01T08:10:33.253Z,7.80
2019-04-01T08:13:01.995Z,7.40
2019-04-01T08:15:30.827Z,7.70
2019-04-01T08:17:59.772Z,7.40
2019-04-01T08:20:28.590Z,7.70
2019-04-01T08:22:57.243Z,7.20
2019-04-01T08:25:26.091Z,7.20
2019-04-01T08:27:54.725Z,7.10
2019-04-01T08:30:23.337Z,7.40
2019-04-01T08:32:52.127Z,7.60
2019-04-01T08:35:20.705Z,7.60
2019-04-01T08:37:49.390Z,8.00
2019-04-01T08:40:18.221Z,7.80
2019-04-01T08:42:48.942Z,8.30
2019-04-01T08:45:17.250Z,8.30
2019-04-01T08:47:46.082Z,8.20
2019-04-01T08:50:14.802Z,8.00
2019-04-01T08:52:43.474Z,8.30
2019-04-01T08:55:12.195Z,8.60
2019-04-01T08:57:41.106Z,8.60
2019-04-01T09:00:10.110Z,8.60
2019-04-01T09:02:38.918Z,7.70
2019-04-01T09:05:09.016Z,8.20
2019-04-01T09:07:37.636Z,8.40
2019-04-01T09:10:07.208Z,8.50
2019-04-01T09:12:36.619Z,8.60
2019-04-01T09:15:05.925Z,8.70
2019-04-01T09:17:34.602Z,7.90
2019-04-01T09:20:04.183Z,8.20
2019-04-01T09:22:32.753Z,8.60
2019-04-01T09:25:01.510Z,9.30
2019-04-01T09:27:30.173Z,8.40
2019-04-01T09:29:58.848Z,8.50
2019-04-01T09:32:27.401Z,8.20
2019-04-01T09:34:56.237Z,7.90
2019-04-01T09:37:25.856Z,8.50
2019-04-01T09:39:54.411Z,8.40
2019-04-01T09:42:23.166Z,8.10
2019-04-01T09:44:52.619Z,8.60
2019-04-01T09:47:21.268Z,8.60
2019-04-01T09:49:49.919Z,8.40
2019-04-01T09:52:18.515Z,8.50
2019-04-01T09:54:47.211Z,9.30
2019-04-01T09:57:18.331Z,9.40
2019-04-01T09:59:46.182Z,8.60
2019-04-01T10:02:14.862Z,8.30
2019-04-01T10:04:43.482Z,8.70
2019-04-01T10:07:12.197Z,9.60
2019-04-01T10:09:40.958Z,9.50
2019-04-01T10:12:09.715Z,9.20
2019-04-01T10:14:38.402Z,8.70
2019-04-01T10:17:07.058Z,8.80
2019-04-01T10:19:35.628Z,8.80
2019-04-01T10:22:04.334Z,9.20
2019-04-01T10:24:32.904Z,9.00
2019-04-01T10:27:01.597Z,9.50
2019-04-01T10:29:30.174Z,8.10
2019-04-01T10:31:58.855Z,8.30
2019-04-01T10:34:27.513Z,8.10
2019-04-01T10:36:56.103Z,8.20
2019-04-01T10:39:24.710Z,8.50
2019-04-01T10:41:53.307Z,8.50
2019-04-01T10:44:21.979Z,8.40
2019-04-01T10:46:50.644Z,8.60
2019-04-01T10:49:19.402Z,8.70
2019-04-01T10:51:48.298Z,9.60
2019-04-01T10:54:17.029Z,8.40
2019-04-01T10:56:45.623Z,8.20
2019-04-01T10:59:14.465Z,8.70
2019-04-01T11:01:43.091Z,9.10
2019-04-01T11:04:11.965Z,8.60
2019-04-01T11:06:40.767Z,8.80
2019-04-01T11:09:11.033Z,9.10
2019-04-01T11:11:39.761Z,9.60
2019-04-01T11:14:08.362Z,8.70
2019-04-01T11:16:38.259Z,8.30
2019-04-01T11:19:07.012Z,8.20
2019-04-01T11:21:35.649Z,8.60
2019-04-01T11:24:07.456Z,9.60
2019-04-01T11:26:36.477Z,9.00
2019-04-01T11:29:05.356Z,8.60
2019-04-01T11:31:34.002Z,9.10
2019-04-01T11:34:02.657Z,8.80
2019-04-01T11:36:31.442Z,9.40
2019-04-01T11:39:00.027Z,9.60
2019-04-01T11:41:28.747Z,9.30
2019-04-01T11:43:57.475Z,9.80
2019-04-01T11:46:26.378Z,10.50
2019-04-01T11:48:55.147Z,9.50
2019-04-01T11:51:32.781Z,9.00
2019-04-01T11:53:54.157Z,9.00
2019-04-01T11:56:26.289Z,9.30
2019-04-01T11:58:56.504Z,8.70
2019-04-01T12:01:23.387Z,8.60
2019-04-01T12:03:52.059Z,9.00
2019-04-01T12:06:21.287Z,9.20
2019-04-01T12:08:49.955Z,8.80
2019-04-01T12:11:18.537Z,8.40
2019-04-01T12:13:47.235Z,8.40
2019-04-01T12:16:15.805Z,7.70
2019-04-01T12:18:44.796Z,7.60
2019-04-01T12:21:13.749Z,7.50
2019-04-01T12:23:42.449Z,7.70
2019-04-01T12:26:15.443Z,7.70
2019-04-01T12:28:41.300Z,7.90
2019-04-01T12:31:12.797Z,7.40
2019-04-01T12:33:40.638Z,7.40
2019-04-01T12:36:11.568Z,7.70
2019-04-01T12:38:39.711Z,8.30
2019-04-01T12:41:08.435Z,8.10
2019-04-01T12:43:37.102Z,7.90
2019-04-01T12:46:06.009Z,7.60
2019-04-01T12:48:34.710Z,7.40
2019-04-01T12:51:03.370Z,7.60
2019-04-01T12:53:32.060Z,7.40
2019-04-01T12:56:00.855Z,7.50
2019-04-01T12:58:29.436Z,7.50
2019-04-01T13:01:00.873Z,7.30
2019-04-01T13:03:28.548Z,7.50
2019-04-01T13:05:57.097Z,7.50
2019-04-01T13:08:25.776Z,7.30
2019-04-01T13:10:56.548Z,7.10
2019-04-01T13:13:26.144Z,7.30
2019-04-01T13:15:54.819Z,7.30
2019-04-01T13:18:23.513Z,7.30
2019-04-01T13:20:52.322Z,7.40
2019-04-01T13:23:21.078Z,7.40
2019-04-01T13:25:49.751Z,7.30
2019-04-01T13:28:18.310Z,7.40
2019-04-01T13:30:47.542Z,7.60
2019-04-01T13:33:17.070Z,7.50
2019-04-01T13:35:46.006Z,7.60
2019-04-01T13:38:15.246Z,7.60
2019-04-01T13:40:44.462Z,7.50
2019-04-01T13:43:16.785Z,7.60
2019-04-01T13:45:43.894Z,7.30
2019-04-01T13:48:12.594Z,7.30
2019-04-01T13:50:41.307Z,7.20
2019-04-01T13:53:10.023Z,7.30
2019-04-01T13:55:38.721Z,7.50
2019-04-01T13:58:07.603Z,7.50
2019-04-01T14:00:36.326Z,7.50
2019-04-01T14:03:05.078Z,7.40
2019-04-01T14:05:33.687Z,7.10
2019-04-01T14:08:05.701Z,7.00
2019-04-01T14:10:32.614Z,6.80
2019-04-01T14:13:01.205Z,6.90
2019-04-01T14:15:29.849Z,6.80
2019-04-01T14:17:58.449Z,6.80
2019-04-01T14:20:27.052Z,6.90
2019-04-01T14:22:55.827Z,7.00
2019-04-01T14:25:24.483Z,6.90
2019-04-01T14:27:54.981Z,7.20
2019-04-01T14:30:23.655Z,7.30
2019-04-01T14:32:52.230Z,7.50
2019-04-01T14:35:23.631Z,7.50
2019-04-01T14:37:51.218Z,7.20
2019-04-01T14:40:19.890Z,7.00
2019-04-01T14:42:48.595Z,7.00
2019-04-01T14:45:17.314Z,7.10
2019-04-01T14:47:56.974Z,6.80
2019-04-01T14:50:17.886Z,6.80
2019-04-01T14:52:46.450Z,6.80
2019-04-01T14:55:16.563Z,6.70
2019-04-01T14:57:45.225Z,6.60
2019-04-01T15:00:14.708Z,6.70
2019-04-01T15:02:43.486Z,6.90
2019-04-01T15:05:12.529Z,6.80
2019-04-01T15:07:41.194Z,6.70
2019-04-01T15:10:10.151Z,6.40
2019-04-01T15:12:39.563Z,6.40
2019-04-01T15:15:09.031Z,6.50
2019-04-01T15:17:37.806Z,6.30
2019-04-01T15:20:07.365Z,6.30
2019-04-01T15:22:36.130Z,6.40
2019-04-01T15:25:07.325Z,6.50
2019-04-01T15:27:35.979Z,6.40
2019-04-01T15:30:06.830Z,6.40
2019-04-01T15:32:35.559Z,6.30
2019-04-01T15:35:06.227Z,6.40
2019-04-01T15:37:35.044Z,6.50
2019-04-01T15:40:05.751Z,6.20
2019-04-01T15:42:34.350Z,6.10
2019-04-01T15:45:03.010Z,6.20
2019-04-01T15:47:31.643Z,6.10
2019-04-01T15:50:00.205Z,6.10
2019-04-01T15:52:28.870Z,6.00
2019-04-01T15:54:58.026Z,6.00
2019-04-01T15:57:27.168Z,5.80
2019-04-01T15:59:56.368Z,5.70
2019-04-01T16:02:24.953Z,5.70
2019-04-01T16:04:53.617Z,5.80
2019-04-01T16:07:22.555Z,5.70
2019-04-01T16:09:51.974Z,5.80
2019-04-01T16:12:20.907Z,5.80
2019-04-01T16:14:49.609Z,5.90
2019-04-01T16:17:18.303Z,5.70
2019-04-01T16:19:47.013Z,5.60
2019-04-01T16:22:15.782Z,5.50
2019-04-01T16:24:45.000Z,5.50
2019-04-01T16:27:13.996Z,5.40
2019-04-01T16:29:42.621Z,5.40
2019-04-01T16:32:11.374Z,5.30
2019-04-01T16:34:42.110Z,5.30
2019-04-01T16:37:10.483Z,5.30
2019-04-01T16:39:39.239Z,5.20
2019-04-01T16:42:07.861Z,5.20
2019-04-01T16:44:36.450Z,5.20
2019-04-01T16:47:05.309Z,5.10
2019-04-01T16:49:34.057Z,5.10
2019-04-01T16:52:02.729Z,5.10
2019-04-01T16:54:31.386Z,5.10
2019-04-01T16:57:00.429Z,5.00
2019-04-01T16:59:29.118Z,5.00
2019-04-01T17:01:57.964Z,5.00
2019-04-01T17:04:26.734Z,4.90
2019-04-01T17:06:55.433Z,4.70
2019-04-01T17:09:24.146Z,4.70
2019-04-01T17:11:54.489Z,4.60
2019-04-01T17:14:24.192Z,4.50
2019-04-01T17:16:53.254Z,4.60
2019-04-01T17:19:21.893Z,4.50
2019-04-01T17:21:50.559Z,4.50
2019-04-01T17:24:19.335Z,4.40
2019-04-01T17:26:59.406Z,4.40
2019-04-01T17:29:31.461Z,4.30
2019-04-01T17:31:58.395Z,4.40
2019-04-01T17:34:27.068Z,4.40
2019-04-01T17:36:55.831Z,4.30
2019-04-01T17:39:24.483Z,4.30
2019-04-01T17:41:53.097Z,4.20
2019-04-01T17:44:21.793Z,4.20
2019-04-01T17:46:50.497Z,4.10
2019-04-01T17:49:19.133Z,4.10
2019-04-01T17:51:47.804Z,4.10
2019-04-01T17:54:16.558Z,4.00
2019-04-01T17:56:45.282Z,4.10
2019-04-01T17:59:15.326Z,4.00
2019-04-01T18:01:44.473Z,4.00
2019-04-01T18:04:13.713Z,4.00
2019-04-01T18:06:42.462Z,3.90
2019-04-01T18:09:11.129Z,3.90
2019-04-01T18:11:39.852Z,3.90
2019-04-01T18:14:08.443Z,3.90
2019-04-01T18:16:37.086Z,3.90
2019-04-01T18:19:06.305Z,3.90
2019-04-01T18:21:38.181Z,3.90
2019-04-01T18:24:06.788Z,3.80
2019-04-01T18:26:35.447Z,3.80
2019-04-01T18:29:04.190Z,3.80
2019-04-01T18:31:33.186Z,3.80
2019-04-01T18:34:02.038Z,3.80
2019-04-01T18:36:30.614Z,3.80
2019-04-01T18:38:59.278Z,3.80
2019-04-01T18:41:28.355Z,3.70
2019-04-01T18:43:57.182Z,3.70
2019-04-01T18:46:26.205Z,3.70
2019-04-01T18:48:54.794Z,3.70
2019-04-01T18:51:23.589Z,3.60
2019-04-01T18:53:52.166Z,3.60
2019-04-01T18:56:20.897Z,3.60
2019-04-01T18:58:49.485Z,3.50
2019-04-01T19:01:18.247Z,3.50
2019-04-01T19:03:47.012Z,3.50
2019-04-01T19:06:15.709Z,3.50
2019-04-01T19:08:44.311Z,3.40
2019-04-01T19:11:12.889Z,3.40
2019-04-01T19:13:42.331Z,3.30
2019-04-01T19:16:13.012Z,3.30
2019-04-01T19:18:42.070Z,3.30
2019-04-01T19:21:11.286Z,3.30
2019-04-01T19:23:39.915Z,3.40
2019-04-01T19:26:10.082Z,3.30
2019-04-01T19:28:38.925Z,3.30
2019-04-01T19:31:07.517Z,3.20
2019-04-01T19:33:36.123Z,3.30
2019-04-01T19:36:04.980Z,3.30
2019-04-01T19:38:33.633Z,3.30
2019-04-01T19:41:02.323Z,3.20
2019-04-01T19:43:30.894Z,3.10
2019-04-01T19:45:59.794Z,3.10
2019-04-01T19:48:28.390Z,3.20
2019-04-01T19:50:57.071Z,3.10
2019-04-01T19:53:25.662Z,3.00
2019-04-01T19:55:54.263Z,2.90
2019-04-01T19:58:22.893Z,2.80
2019-04-01T20:00:51.841Z,2.70
2019-04-01T20:03:20.497Z,2.70
2019-04-01T20:05:50.084Z,2.50
2019-04-01T20:08:18.765Z,2.50
2019-04-01T20:10:47.357Z,2.40
2019-04-01T20:13:16.164Z,2.40
2019-04-01T20:15:44.938Z,2.30
2019-04-01T20:18:13.538Z,2.20
2019-04-01T20:20:42.245Z,2.30
2019-04-01T20:23:10.963Z,2.30
2019-04-01T20:25:39.602Z,2.20
2019-04-01T20:28:08.231Z,2.20
2019-04-01T20:30:37.973Z,2.20
2019-04-01T20:33:17.017Z,2.10
2019-04-01T20:35:37.351Z,2.10
2019-04-01T20:38:05.949Z,2.00
2019-04-01T20:40:34.666Z,2.00
2019-04-01T20:43:03.242Z,1.90
2019-04-01T20:45:31.854Z,1.80
2019-04-01T20:48:00.425Z,1.80
2019-04-01T20:50:29.358Z,1.70
2019-04-01T20:52:58.015Z,1.60
2019-04-01T20:55:26.805Z,1.50
2019-04-01T20:57:55.521Z,1.60
2019-04-01T21:00:24.166Z,1.60
2019-04-01T21:02:52.762Z,1.60
2019-04-01T21:05:21.639Z,1.50
2019-04-01T21:07:50.270Z,1.40
2019-04-01T21:10:19.007Z,1.40
2019-04-01T21:12:47.676Z,1.50
2019-04-01T21:15:16.534Z,1.30
2019-04-01T21:17:45.145Z,1.30
2019-04-01T21:20:13.998Z,1.30
2019-04-01T21:22:43.009Z,1.20
2019-04-01T21:25:11.828Z,1.20
2019-04-01T21:27:40.651Z,1.10
2019-04-01T21:30:10.719Z,1.10
2019-04-01T21:32:39.632Z,1.00
2019-04-01T21:35:09.446Z,1.00
2019-04-01T21:37:38.453Z,1.10
2019-04-01T21:40:07.829Z,1.00
2019-04-01T21:42:36.641Z,1.10
2019-04-01T21:45:08.146Z,1.00
2019-04-01T21:47:36.830Z,0.90
2019-04-01T21:50:06.990Z,0.90
2019-04-01T21:52:35.741Z,0.90
2019-04-01T21:55:08.012Z,0.90
2019-04-01T21:57:35.974Z,0.80
2019-04-01T22:00:07.846Z,0.80
2019-04-01T22:02:36.686Z,0.80
2019-04-01T22:05:07.094Z,0.80
2019-04-01T22:07:36.021Z,0.80
2019-04-01T22:10:05.879Z,0.80
2019-04-01T22:12:34.578Z,0.80
2019-04-01T22:15:03.357Z,0.70
2019-04-01T22:17:32.116Z,0.70
2019-04-01T22:20:00.681Z,0.50
2019-04-01T22:22:29.284Z,0.50
2019-04-01T22:24:57.875Z,0.50
2019-04-01T22:27:26.554Z,0.50
2019-04-01T22:29:55.135Z,0.50
2019-04-01T22:32:23.830Z,0.50
2019-04-01T22:34:52.408Z,0.50
2019-04-01T22:37:27.257Z,0.50
2019-04-01T22:39:51.316Z,0.50
2019-04-01T22:42:19.956Z,0.50
2019-04-01T22:44:48.626Z,0.50
2019-04-01T22:47:17.348Z,0.40
2019-04-01T22:49:46.109Z,0.40
2019-04-01T22:52:14.724Z,0.40
2019-04-01T22:54:43.331Z,0.30
2019-04-01T22:57:11.925Z,0.30
2019-04-01T22:59:40.572Z,0.30
2019-04-01T23:02:09.392Z,0.30
2019-04-01T23:04:39.310Z,0.30
2019-04-01T23:07:08.307Z,0.40
2019-04-01T23:09:36.857Z,0.40
2019-04-01T23:12:05.572Z,0.40
2019-04-01T23:14:34.162Z,0.30
2019-04-01T23:17:03.048Z,0.20
2019-04-01T23:19:31.649Z,0.10
2019-04-01T23:22:00.720Z,0.00
2019-04-01T23:24:29.528Z,0.10
2019-04-01T23:26:58.242Z,0.10
2019-04-01T23:29:26.878Z,0.10
2019-04-01T23:31:55.543Z,0.10
2019-04-01T23:34:24.224Z,0.10
2019-04-01T23:36:52.826Z,0.00
2019-04-01T23:39:21.416Z,-0.10
2019-04-01T23:41:50.287Z,-0.10
2019-04-01T23:44:18.881Z,-0.10
2019-04-01T23:46:48.026Z,0.00
2019-04-01T23:49:16.770Z,-0.10
2019-04-01T23:51:45.403Z,-0.10
2019-04-01T23:54:13.986Z,-0.10
2019-04-01T23:56:42.595Z,-0.10
2019-04-01T23:59:11.221Z,-0.10
